To NAV CANADA Home Page Login to a new session Search on AWWS site Feedback and Comments Disclaimer Vers la page française équivalente Tips FAQ What's new on the site To the Forecasts and Observations / NOTAM section To "File a Flight Plan" website Publications and other links Update of the User's profile FIC Telephone Numbers My Weather Data Folder Route Weather Data Regional Weather Data Local Weather Data To the Forecasts and Observations / NOTAM section
Request Generated 05/03/2015 at 16:52:38 UTC . Weather information available at that time is displayed.

METAR/TAF

SCHEFFERVILLE/QC    (show WxCam)

METAR CYKL 031600Z AUTO 22007KT 200V280 9SM CLR 10/M03 A2991 RMK
SLP150=
METAR CYKL 031500Z AUTO 22007KT 9SM CLR 09/M06 A2991 RMK SLP148=
METAR CYKL 031400Z AUTO 27005KT 200V300 9SM CLR 08/M03 A2991 RMK
SLP148=

TAF CYKL 031338Z 0314/0402 30005KT P6SM FEW040
RMK FCST BASED ON AUTO OBS. NXT FCST BY 032000Z=
Your time UTC time
Weather data provided by Environment Canada and NAV CANADA